sensor_id;sensor_type;location;lat;lon;timestamp;temperature;humidity
2729;DHT22;1372;47.956;7.830;2022-07-06T00:00:22;17.10;99.90
2729;DHT22;1372;47.956;7.830;2022-07-06T00:02:52;17.20;99.90
2729;DHT22;1372;47.956;7.830;2022-07-06T00:05:21;17.20;99.90
2729;DHT22;1372;47.956;7.830;2022-07-06T00:07:52;17.20;99.90
2729;DHT22;1372;47.956;7.830;2022-07-06T00:10:21;17.10;99.90
2729;DHT22;1372;47.956;7.830;2022-07-06T00:12:49;17.20;99.90
2729;DHT22;1372;47.956;7.830;2022-07-06T00:15:38;16.90;99.90
2729;DHT22;1372;47.956;7.830;2022-07-06T00:18:08;17.00;99.90
2729;DHT22;1372;47.956;7.830;2022-07-06T00:20:40;16.90;99.90
2729;DHT22;1372;47.956;7.830;2022-07-06T00:23:08;16.90;99.90
2729;DHT22;1372;47.956;7.830;2022-07-06T00:25:39;16.90;99.90
2729;DHT22;1372;47.956;7.830;2022-07-06T00:28:10;17.00;99.90
2729;DHT22;1372;47.956;7.830;2022-07-06T00:30:41;17.00;99.90
2729;DHT22;1372;47.956;7.830;2022-07-06T00:33:12;17.00;99.90
2729;DHT22;1372;47.956;7.830;2022-07-06T00:35:40;17.00;99.90
2729;DHT22;1372;47.956;7.830;2022-07-06T00:38:10;17.00;99.90
2729;DHT22;1372;47.956;7.830;2022-07-06T00:40:39;16.90;99.90
2729;DHT22;1372;47.956;7.830;2022-07-06T00:43:07;16.90;99.90
2729;DHT22;1372;47.956;7.830;2022-07-06T00:45:36;16.80;99.90
2729;DHT22;1372;47.956;7.830;2022-07-06T00:48:05;16.70;99.90
2729;DHT22;1372;47.956;7.830;2022-07-06T00:50:39;16.60;99.90
2729;DHT22;1372;47.956;7.830;2022-07-06T00:53:08;16.60;99.90
2729;DHT22;1372;47.956;7.830;2022-07-06T00:55:40;16.60;99.90
2729;DHT22;1372;47.956;7.830;2022-07-06T00:58:09;16.50;99.90
2729;DHT22;1372;47.956;7.830;2022-07-06T01:00:40;16.60;99.90
2729;DHT22;1372;47.956;7.830;2022-07-06T01:03:12;16.60;99.90
2729;DHT22;1372;47.956;7.830;2022-07-06T01:05:42;16.50;99.90
2729;DHT22;1372;47.956;7.830;2022-07-06T01:08:31;16.60;99.90
2729;DHT22;1372;47.956;7.830;2022-07-06T01:11:00;16.60;99.90
2729;DHT22;1372;47.956;7.830;2022-07-06T01:13:30;16.40;99.90
2729;DHT22;1372;47.956;7.830;2022-07-06T01:15:59;16.40;99.90
2729;DHT22;1372;47.956;7.830;2022-07-06T01:18:28;16.20;99.90
2729;DHT22;1372;47.956;7.830;2022-07-06T01:21:09;16.20;99.90
2729;DHT22;1372;47.956;7.830;2022-07-06T01:23:42;16.20;99.90
2729;DHT22;1372;47.956;7.830;2022-07-06T01:26:14;16.10;99.90
2729;DHT22;1372;47.956;7.830;2022-07-06T01:28:44;16.10;99.90
2729;DHT22;1372;47.956;7.830;2022-07-06T01:31:14;16.00;99.90
2729;DHT22;1372;47.956;7.830;2022-07-06T01:33:52;16.10;99.90
2729;DHT22;1372;47.956;7.830;2022-07-06T01:36:23;16.10;99.90
2729;DHT22;1372;47.956;7.830;2022-07-06T01:38:55;16.10;99.90
2729;DHT22;1372;47.956;7.830;2022-07-06T01:41:25;16.00;99.90
2729;DHT22;1372;47.956;7.830;2022-07-06T01:43:54;16.00;99.90
2729;DHT22;1372;47.956;7.830;2022-07-06T01:46:22;16.00;99.90
2729;DHT22;1372;47.956;7.830;2022-07-06T01:48:51;16.00;99.90
2729;DHT22;1372;47.956;7.830;2022-07-06T01:51:20;16.00;99.90
2729;DHT22;1372;47.956;7.830;2022-07-06T01:53:50;15.90;99.90
2729;DHT22;1372;47.956;7.830;2022-07-06T01:56:20;15.80;99.90
2729;DHT22;1372;47.956;7.830;2022-07-06T01:58:49;15.90;99.90
2729;DHT22;1372;47.956;7.830;2022-07-06T02:01:19;15.90;99.90
2729;DHT22;1372;47.956;7.830;2022-07-06T02:03:48;15.90;99.90
2729;DHT22;1372;47.956;7.830;2022-07-06T02:06:17;15.90;99.90
2729;DHT22;1372;47.956;7.830;2022-07-06T02:08:46;15.80;99.90
2729;DHT22;1372;47.956;7.830;2022-07-06T02:11:16;15.80;99.90
2729;DHT22;1372;47.956;7.830;2022-07-06T02:14:04;15.70;99.90
2729;DHT22;1372;47.956;7.830;2022-07-06T02:16:33;15.70;99.90
2729;DHT22;1372;47.956;7.830;2022-07-06T02:19:02;15.80;99.90
2729;DHT22;1372;47.956;7.830;2022-07-06T02:21:31;15.70;99.90
2729;DHT22;1372;47.956;7.830;2022-07-06T02:24:00;15.80;99.90
2729;DHT22;1372;47.956;7.830;2022-07-06T02:26:30;15.70;99.90
2729;DHT22;1372;47.956;7.830;2022-07-06T02:29:00;15.70;99.90
2729;DHT22;1372;47.956;7.830;2022-07-06T02:31:28;15.60;99.90
2729;DHT22;1372;47.956;7.830;2022-07-06T02:33:57;15.60;99.90
2729;DHT22;1372;47.956;7.830;2022-07-06T02:36:28;15.60;99.90
2729;DHT22;1372;47.956;7.830;2022-07-06T02:38:57;15.50;99.90
2729;DHT22;1372;47.956;7.830;2022-07-06T02:41:25;15.40;99.90
2729;DHT22;1372;47.956;7.830;2022-07-06T02:43:56;15.50;99.90
2729;DHT22;1372;47.956;7.830;2022-07-06T02:46:25;15.40;99.90
2729;DHT22;1372;47.956;7.830;2022-07-06T02:49:13;15.30;99.90
2729;DHT22;1372;47.956;7.830;2022-07-06T02:51:42;15.30;99.90
2729;DHT22;1372;47.956;7.830;2022-07-06T02:54:11;15.30;99.90
2729;DHT22;1372;47.956;7.830;2022-07-06T02:56:39;15.30;99.90
2729;DHT22;1372;47.956;7.830;2022-07-06T02:59:29;15.30;99.90
2729;DHT22;1372;47.956;7.830;2022-07-06T03:02:00;15.20;99.90
2729;DHT22;1372;47.956;7.830;2022-07-06T03:04:29;15.10;99.90
2729;DHT22;1372;47.956;7.830;2022-07-06T03:06:57;15.10;99.90
2729;DHT22;1372;47.956;7.830;2022-07-06T03:09:26;15.00;99.90
2729;DHT22;1372;47.956;7.830;2022-07-06T03:11:55;15.00;99.90
2729;DHT22;1372;47.956;7.830;2022-07-06T03:14:24;15.10;99.90
2729;DHT22;1372;47.956;7.830;2022-07-06T03:16:55;15.00;99.90
2729;DHT22;1372;47.956;7.830;2022-07-06T03:19:26;15.00;99.90
2729;DHT22;1372;47.956;7.830;2022-07-06T03:21:57;15.00;99.90
2729;DHT22;1372;47.956;7.830;2022-07-06T03:24:45;15.10;99.90
2729;DHT22;1372;47.956;7.830;2022-07-06T03:27:34;15.00;99.90
2729;DHT22;1372;47.956;7.830;2022-07-06T03:30:22;14.90;99.90
2729;DHT22;1372;47.956;7.830;2022-07-06T03:33:12;14.80;99.90
2729;DHT22;1372;47.956;7.830;2022-07-06T03:35:41;14.90;99.90
2729;DHT22;1372;47.956;7.830;2022-07-06T03:38:09;14.90;99.90
2729;DHT22;1372;47.956;7.830;2022-07-06T03:40:58;14.80;99.90
2729;DHT22;1372;47.956;7.830;2022-07-06T03:43:26;14.80;99.90
2729;DHT22;1372;47.956;7.830;2022-07-06T03:45:55;14.70;99.90
2729;DHT22;1372;47.956;7.830;2022-07-06T03:48:26;14.80;99.90
2729;DHT22;1372;47.956;7.830;2022-07-06T03:50:55;14.80;99.90
2729;DHT22;1372;47.956;7.830;2022-07-06T03:53:43;14.80;99.90
2729;DHT22;1372;47.956;7.830;2022-07-06T03:56:12;14.90;99.90
2729;DHT22;1372;47.956;7.830;2022-07-06T03:59:00;14.90;99.90
2729;DHT22;1372;47.956;7.830;2022-07-06T04:01:30;14.80;99.90
2729;DHT22;1372;47.956;7.830;2022-07-06T04:04:00;14.80;99.90
2729;DHT22;1372;47.956;7.830;2022-07-06T04:06:29;14.80;99.90
2729;DHT22;1372;47.956;7.830;2022-07-06T04:09:18;14.70;99.90
2729;DHT22;1372;47.956;7.830;2022-07-06T04:11:47;14.80;99.90
2729;DHT22;1372;47.956;7.830;2022-07-06T04:14:18;14.80;99.90
2729;DHT22;1372;47.956;7.830;2022-07-06T04:16:47;14.80;99.90
2729;DHT22;1372;47.956;7.830;2022-07-06T04:19:17;14.80;99.90
2729;DHT22;1372;47.956;7.830;2022-07-06T04:21:46;14.80;99.90
2729;DHT22;1372;47.956;7.830;2022-07-06T04:24:15;14.70;99.90
2729;DHT22;1372;47.956;7.830;2022-07-06T04:26:43;14.80;99.90
2729;DHT22;1372;47.956;7.830;2022-07-06T04:29:12;14.80;99.90
2729;DHT22;1372;47.956;7.830;2022-07-06T04:31:41;14.90;99.90
2729;DHT22;1372;47.956;7.830;2022-07-06T04:34:31;14.90;99.90
2729;DHT22;1372;47.956;7.830;2022-07-06T04:37:07;14.80;99.90
2729;DHT22;1372;47.956;7.830;2022-07-06T04:39:36;14.80;99.90
2729;DHT22;1372;47.956;7.830;2022-07-06T04:42:08;14.80;99.90
2729;DHT22;1372;47.956;7.830;2022-07-06T04:44:37;14.90;99.90
2729;DHT22;1372;47.956;7.830;2022-07-06T04:47:08;14.90;99.90
2729;DHT22;1372;47.956;7.830;2022-07-06T04:49:38;14.90;99.90
2729;DHT22;1372;47.956;7.830;2022-07-06T04:52:07;15.00;99.90
2729;DHT22;1372;47.956;7.830;2022-07-06T04:54:55;15.00;99.90
2729;DHT22;1372;47.956;7.830;2022-07-06T04:57:24;15.00;99.90
2729;DHT22;1372;47.956;7.830;2022-07-06T04:59:53;15.00;99.90
2729;DHT22;1372;47.956;7.830;2022-07-06T05:02:22;15.10;99.90
2729;DHT22;1372;47.956;7.830;2022-07-06T05:04:52;15.20;99.90
2729;DHT22;1372;47.956;7.830;2022-07-06T05:07:23;15.10;99.90
2729;DHT22;1372;47.956;7.830;2022-07-06T05:09:55;15.10;99.90
2729;DHT22;1372;47.956;7.830;2022-07-06T05:12:24;15.20;99.90
2729;DHT22;1372;47.956;7.830;2022-07-06T05:14:55;15.20;99.90
2729;DHT22;1372;47.956;7.830;2022-07-06T05:17:24;15.30;99.90
2729;DHT22;1372;47.956;7.830;2022-07-06T05:19:57;15.40;99.90
2729;DHT22;1372;47.956;7.830;2022-07-06T05:22:26;15.40;99.90
2729;DHT22;1372;47.956;7.830;2022-07-06T05:25:15;15.40;99.90
2729;DHT22;1372;47.956;7.830;2022-07-06T05:27:43;15.50;99.90
2729;DHT22;1372;47.956;7.830;2022-07-06T05:30:12;15.50;99.90
2729;DHT22;1372;47.956;7.830;2022-07-06T05:32:42;15.60;99.90
2729;DHT22;1372;47.956;7.830;2022-07-06T05:35:12;15.60;99.90
2729;DHT22;1372;47.956;7.830;2022-07-06T05:38:03;15.60;99.90
2729;DHT22;1372;47.956;7.830;2022-07-06T05:40:32;15.70;99.90
2729;DHT22;1372;47.956;7.830;2022-07-06T05:43:01;15.80;99.90
2729;DHT22;1372;47.956;7.830;2022-07-06T05:45:49;15.80;99.90
2729;DHT22;1372;47.956;7.830;2022-07-06T05:48:18;15.90;99.90
2729;DHT22;1372;47.956;7.830;2022-07-06T05:51:07;15.90;99.90
2729;DHT22;1372;47.956;7.830;2022-07-06T05:53:35;16.10;99.90
2729;DHT22;1372;47.956;7.830;2022-07-06T05:56:04;16.20;99.90
2729;DHT22;1372;47.956;7.830;2022-07-06T05:58:33;16.20;99.90
2729;DHT22;1372;47.956;7.830;2022-07-06T06:01:02;16.40;99.90
2729;DHT22;1372;47.956;7.830;2022-07-06T06:03:31;16.40;99.90
2729;DHT22;1372;47.956;7.830;2022-07-06T06:06:03;16.50;99.90
2729;DHT22;1372;47.956;7.830;2022-07-06T06:08:36;16.60;99.90
2729;DHT22;1372;47.956;7.830;2022-07-06T06:11:04;16.70;99.90
2729;DHT22;1372;47.956;7.830;2022-07-06T06:13:37;16.70;99.90
2729;DHT22;1372;47.956;7.830;2022-07-06T06:16:08;16.80;99.90
2729;DHT22;1372;47.956;7.830;2022-07-06T06:18:37;16.80;99.90
2729;DHT22;1372;47.956;7.830;2022-07-06T06:21:09;16.80;99.90
2729;DHT22;1372;47.956;7.830;2022-07-06T06:23:39;16.90;99.90
2729;DHT22;1372;47.956;7.830;2022-07-06T06:26:08;16.90;99.90
2729;DHT22;1372;47.956;7.830;2022-07-06T06:28:36;17.00;99.90
2729;DHT22;1372;47.956;7.830;2022-07-06T06:31:05;17.00;99.90
2729;DHT22;1372;47.956;7.830;2022-07-06T06:33:54;17.00;99.90
2729;DHT22;1372;47.956;7.830;2022-07-06T06:36:23;17.00;99.90
2729;DHT22;1372;47.956;7.830;2022-07-06T06:39:12;17.00;99.90
2729;DHT22;1372;47.956;7.830;2022-07-06T06:41:41;17.00;99.90
2729;DHT22;1372;47.956;7.830;2022-07-06T06:44:10;17.00;99.90
2729;DHT22;1372;47.956;7.830;2022-07-06T06:46:38;17.00;99.90
2729;DHT22;1372;47.956;7.830;2022-07-06T06:49:27;17.10;99.90
2729;DHT22;1372;47.956;7.830;2022-07-06T06:51:55;17.20;99.90
2729;DHT22;1372;47.956;7.830;2022-07-06T06:54:45;17.30;99.90
2729;DHT22;1372;47.956;7.830;2022-07-06T06:57:14;17.30;99.90
2729;DHT22;1372;47.956;7.830;2022-07-06T06:59:43;17.40;99.90
2729;DHT22;1372;47.956;7.830;2022-07-06T07:02:11;17.50;99.90
2729;DHT22;1372;47.956;7.830;2022-07-06T07:04:40;17.60;99.90
2729;DHT22;1372;47.956;7.830;2022-07-06T07:07:09;17.70;99.90
2729;DHT22;1372;47.956;7.830;2022-07-06T07:09:40;17.70;99.90
2729;DHT22;1372;47.956;7.830;2022-07-06T07:12:10;17.80;99.90
2729;DHT22;1372;47.956;7.830;2022-07-06T07:14:39;17.90;99.90
2729;DHT22;1372;47.956;7.830;2022-07-06T07:17:08;18.00;99.90
2729;DHT22;1372;47.956;7.830;2022-07-06T07:19:38;18.10;99.90
2729;DHT22;1372;47.956;7.830;2022-07-06T07:22:06;18.20;99.90
2729;DHT22;1372;47.956;7.830;2022-07-06T07:24:38;18.10;99.90
2729;DHT22;1372;47.956;7.830;2022-07-06T07:27:09;18.20;99.90
2729;DHT22;1372;47.956;7.830;2022-07-06T07:29:57;18.30;99.90
2729;DHT22;1372;47.956;7.830;2022-07-06T07:32:46;18.30;99.90
2729;DHT22;1372;47.956;7.830;2022-07-06T07:35:14;18.30;99.90
2729;DHT22;1372;47.956;7.830;2022-07-06T07:37:43;18.40;99.90
2729;DHT22;1372;47.956;7.830;2022-07-06T07:40:12;18.50;99.90
2729;DHT22;1372;47.956;7.830;2022-07-06T07:42:42;18.50;99.90
2729;DHT22;1372;47.956;7.830;2022-07-06T07:45:14;18.50;99.90
2729;DHT22;1372;47.956;7.830;2022-07-06T07:47:58;18.60;99.90
2729;DHT22;1372;47.956;7.830;2022-07-06T07:50:47;18.60;99.90
2729;DHT22;1372;47.956;7.830;2022-07-06T07:53:15;18.70;99.90
2729;DHT22;1372;47.956;7.830;2022-07-06T07:56:00;18.70;99.90
2729;DHT22;1372;47.956;7.830;2022-07-06T07:58:30;18.80;99.90
2729;DHT22;1372;47.956;7.830;2022-07-06T08:01:00;18.80;99.90
2729;DHT22;1372;47.956;7.830;2022-07-06T08:03:28;18.90;99.90
2729;DHT22;1372;47.956;7.830;2022-07-06T08:05:58;18.90;99.90
2729;DHT22;1372;47.956;7.830;2022-07-06T08:08:29;19.00;99.90
2729;DHT22;1372;47.956;7.830;2022-07-06T08:10:58;19.10;99.90
2729;DHT22;1372;47.956;7.830;2022-07-06T08:13:50;19.00;99.90
2729;DHT22;1372;47.956;7.830;2022-07-06T08:16:38;19.20;99.90
2729;DHT22;1372;47.956;7.830;2022-07-06T08:19:07;19.20;99.90
2729;DHT22;1372;47.956;7.830;2022-07-06T08:21:37;19.30;99.90
2729;DHT22;1372;47.956;7.830;2022-07-06T08:24:06;19.30;99.90
2729;DHT22;1372;47.956;7.830;2022-07-06T08:26:35;19.40;99.90
2729;DHT22;1372;47.956;7.830;2022-07-06T08:29:06;19.50;99.90
2729;DHT22;1372;47.956;7.830;2022-07-06T08:31:34;19.50;99.90
2729;DHT22;1372;47.956;7.830;2022-07-06T08:34:41;19.60;99.90
2729;DHT22;1372;47.956;7.830;2022-07-06T08:37:11;19.70;99.90
2729;DHT22;1372;47.956;7.830;2022-07-06T08:39:59;19.70;99.90
2729;DHT22;1372;47.956;7.830;2022-07-06T08:42:30;19.70;99.90
2729;DHT22;1372;47.956;7.830;2022-07-06T08:45:04;19.70;99.90
2729;DHT22;1372;47.956;7.830;2022-07-06T08:47:36;19.80;99.90
2729;DHT22;1372;47.956;7.830;2022-07-06T08:50:25;19.80;99.90
2729;DHT22;1372;47.956;7.830;2022-07-06T08:52:54;19.90;99.90
2729;DHT22;1372;47.956;7.830;2022-07-06T08:55:24;19.90;99.90
2729;DHT22;1372;47.956;7.830;2022-07-06T08:57:55;19.90;99.90
2729;DHT22;1372;47.956;7.830;2022-07-06T09:00:46;20.00;99.90
2729;DHT22;1372;47.956;7.830;2022-07-06T09:03:15;20.10;99.90
2729;DHT22;1372;47.956;7.830;2022-07-06T09:06:04;20.10;99.90
2729;DHT22;1372;47.956;7.830;2022-07-06T09:08:34;20.40;99.90
2729;DHT22;1372;47.956;7.830;2022-07-06T09:11:04;20.60;99.90
2729;DHT22;1372;47.956;7.830;2022-07-06T09:13:35;20.70;99.90
2729;DHT22;1372;47.956;7.830;2022-07-06T09:16:13;20.70;99.90
2729;DHT22;1372;47.956;7.830;2022-07-06T09:19:23;20.70;99.90
2729;DHT22;1372;47.956;7.830;2022-07-06T09:21:51;20.80;99.90
2729;DHT22;1372;47.956;7.830;2022-07-06T09:24:42;20.70;99.90
2729;DHT22;1372;47.956;7.830;2022-07-06T09:27:30;20.70;99.90
2729;DHT22;1372;47.956;7.830;2022-07-06T09:30:00;20.90;99.90
2729;DHT22;1372;47.956;7.830;2022-07-06T09:32:31;21.00;99.90
2729;DHT22;1372;47.956;7.830;2022-07-06T09:35:01;21.00;99.90
2729;DHT22;1372;47.956;7.830;2022-07-06T09:37:30;21.00;99.90
2729;DHT22;1372;47.956;7.830;2022-07-06T09:40:03;21.10;99.90
2729;DHT22;1372;47.956;7.830;2022-07-06T09:42:45;21.10;99.90
2729;DHT22;1372;47.956;7.830;2022-07-06T09:45:20;21.10;99.90
2729;DHT22;1372;47.956;7.830;2022-07-06T09:48:15;21.20;99.90
2729;DHT22;1372;47.956;7.830;2022-07-06T09:50:50;21.30;99.90
2729;DHT22;1372;47.956;7.830;2022-07-06T09:53:21;21.30;99.90
2729;DHT22;1372;47.956;7.830;2022-07-06T09:55:53;21.40;99.90
2729;DHT22;1372;47.956;7.830;2022-07-06T09:58:22;21.40;99.90
2729;DHT22;1372;47.956;7.830;2022-07-06T10:01:31;21.60;99.90
2729;DHT22;1372;47.956;7.830;2022-07-06T10:04:01;21.70;99.90
2729;DHT22;1372;47.956;7.830;2022-07-06T10:06:30;21.70;99.90
2729;DHT22;1372;47.956;7.830;2022-07-06T10:08:59;21.80;99.90
2729;DHT22;1372;47.956;7.830;2022-07-06T10:11:29;21.90;99.90
2729;DHT22;1372;47.956;7.830;2022-07-06T10:14:01;22.00;99.90
2729;DHT22;1372;47.956;7.830;2022-07-06T10:16:34;22.00;99.90
2729;DHT22;1372;47.956;7.830;2022-07-06T10:19:08;22.10;99.90
2729;DHT22;1372;47.956;7.830;2022-07-06T10:21:38;22.00;99.90
2729;DHT22;1372;47.956;7.830;2022-07-06T10:24:09;22.10;99.90
2729;DHT22;1372;47.956;7.830;2022-07-06T10:26:38;22.10;99.90
2729;DHT22;1372;47.956;7.830;2022-07-06T10:29:07;22.20;99.90
2729;DHT22;1372;47.956;7.830;2022-07-06T10:31:43;22.30;99.90
2729;DHT22;1372;47.956;7.830;2022-07-06T10:34:16;22.30;99.90
2729;DHT22;1372;47.956;7.830;2022-07-06T10:36:49;22.40;99.90
2729;DHT22;1372;47.956;7.830;2022-07-06T10:39:32;22.60;99.90
2729;DHT22;1372;47.956;7.830;2022-07-06T10:42:41;22.60;99.90
2729;DHT22;1372;47.956;7.830;2022-07-06T10:45:12;22.60;99.90
2729;DHT22;1372;47.956;7.830;2022-07-06T10:47:42;22.60;99.90
2729;DHT22;1372;47.956;7.830;2022-07-06T10:50:12;22.60;99.90
2729;DHT22;1372;47.956;7.830;2022-07-06T10:52:48;22.70;99.90
2729;DHT22;1372;47.956;7.830;2022-07-06T10:55:32;22.80;99.90
2729;DHT22;1372;47.956;7.830;2022-07-06T10:58:48;23.00;99.90
2729;DHT22;1372;47.956;7.830;2022-07-06T11:01:20;23.00;99.90
2729;DHT22;1372;47.956;7.830;2022-07-06T11:04:05;23.10;99.90
2729;DHT22;1372;47.956;7.830;2022-07-06T11:06:39;23.10;99.90
2729;DHT22;1372;47.956;7.830;2022-07-06T11:09:32;23.20;99.90
2729;DHT22;1372;47.956;7.830;2022-07-06T11:12:12;23.20;99.90
2729;DHT22;1372;47.956;7.830;2022-07-06T11:14:44;23.20;99.90
2729;DHT22;1372;47.956;7.830;2022-07-06T11:17:14;23.20;99.90
2729;DHT22;1372;47.956;7.830;2022-07-06T11:19:49;23.20;99.90
2729;DHT22;1372;47.956;7.830;2022-07-06T11:22:20;23.20;99.90
2729;DHT22;1372;47.956;7.830;2022-07-06T11:24:52;23.20;99.90
2729;DHT22;1372;47.956;7.830;2022-07-06T11:27:23;23.30;99.90
2729;DHT22;1372;47.956;7.830;2022-07-06T11:29:53;23.40;99.90
2729;DHT22;1372;47.956;7.830;2022-07-06T11:32:24;23.40;99.90
2729;DHT22;1372;47.956;7.830;2022-07-06T11:35:21;23.40;99.90
2729;DHT22;1372;47.956;7.830;2022-07-06T11:37:51;23.60;99.90
2729;DHT22;1372;47.956;7.830;2022-07-06T11:40:39;23.70;99.90
2729;DHT22;1372;47.956;7.830;2022-07-06T11:43:10;23.80;99.90
2729;DHT22;1372;47.956;7.830;2022-07-06T11:45:39;23.80;99.90
2729;DHT22;1372;47.956;7.830;2022-07-06T11:48:11;23.80;99.90
2729;DHT22;1372;47.956;7.830;2022-07-06T11:50:42;24.00;99.90
2729;DHT22;1372;47.956;7.830;2022-07-06T11:53:14;24.10;99.90
2729;DHT22;1372;47.956;7.830;2022-07-06T11:55:43;24.10;99.90
2729;DHT22;1372;47.956;7.830;2022-07-06T11:58:12;24.10;99.90
2729;DHT22;1372;47.956;7.830;2022-07-06T12:00:40;24.10;99.90
2729;DHT22;1372;47.956;7.830;2022-07-06T12:03:10;24.20;99.90
2729;DHT22;1372;47.956;7.830;2022-07-06T12:05:39;24.20;99.90
2729;DHT22;1372;47.956;7.830;2022-07-06T12:08:08;24.30;99.90
2729;DHT22;1372;47.956;7.830;2022-07-06T12:10:38;24.30;99.90
2729;DHT22;1372;47.956;7.830;2022-07-06T12:13:07;24.40;99.90
2729;DHT22;1372;47.956;7.830;2022-07-06T12:15:36;24.30;99.90
2729;DHT22;1372;47.956;7.830;2022-07-06T12:18:05;24.40;99.90
2729;DHT22;1372;47.956;7.830;2022-07-06T12:20:53;24.40;99.90
2729;DHT22;1372;47.956;7.830;2022-07-06T12:23:22;24.50;99.90
2729;DHT22;1372;47.956;7.830;2022-07-06T12:25:54;24.50;99.90
2729;DHT22;1372;47.956;7.830;2022-07-06T12:28:43;24.50;99.90
2729;DHT22;1372;47.956;7.830;2022-07-06T12:31:31;24.60;99.90
2729;DHT22;1372;47.956;7.830;2022-07-06T12:34:01;24.60;99.90
2729;DHT22;1372;47.956;7.830;2022-07-06T12:36:31;24.60;99.90
2729;DHT22;1372;47.956;7.830;2022-07-06T12:39:00;24.60;99.90
2729;DHT22;1372;47.956;7.830;2022-07-06T12:41:32;24.50;99.90
2729;DHT22;1372;47.956;7.830;2022-07-06T12:44:05;24.40;99.90
2729;DHT22;1372;47.956;7.830;2022-07-06T12:46:38;24.50;99.90
2729;DHT22;1372;47.956;7.830;2022-07-06T12:49:14;24.60;99.90
2729;DHT22;1372;47.956;7.830;2022-07-06T12:51:59;24.70;99.90
2729;DHT22;1372;47.956;7.830;2022-07-06T12:54:34;24.70;99.90
2729;DHT22;1372;47.956;7.830;2022-07-06T12:57:08;24.80;99.90
2729;DHT22;1372;47.956;7.830;2022-07-06T13:00:00;24.90;99.90
2729;DHT22;1372;47.956;7.830;2022-07-06T13:02:50;24.90;99.90
2729;DHT22;1372;47.956;7.830;2022-07-06T13:05:38;25.00;99.90
2729;DHT22;1372;47.956;7.830;2022-07-06T13:08:09;25.00;99.90
2729;DHT22;1372;47.956;7.830;2022-07-06T13:10:38;25.10;99.90
2729;DHT22;1372;47.956;7.830;2022-07-06T13:13:11;25.10;99.90
2729;DHT22;1372;47.956;7.830;2022-07-06T13:16:00;25.20;99.90
2729;DHT22;1372;47.956;7.830;2022-07-06T13:18:28;25.20;99.90
2729;DHT22;1372;47.956;7.830;2022-07-06T13:20:58;25.30;99.90
2729;DHT22;1372;47.956;7.830;2022-07-06T13:23:27;25.30;99.90
2729;DHT22;1372;47.956;7.830;2022-07-06T13:25:56;25.20;99.90
2729;DHT22;1372;47.956;7.830;2022-07-06T13:28:26;25.30;99.90
2729;DHT22;1372;47.956;7.830;2022-07-06T13:30:54;25.30;99.90
2729;DHT22;1372;47.956;7.830;2022-07-06T13:33:23;25.20;99.90
2729;DHT22;1372;47.956;7.830;2022-07-06T13:35:52;25.20;99.90
2729;DHT22;1372;47.956;7.830;2022-07-06T13:38:41;25.40;99.90
2729;DHT22;1372;47.956;7.830;2022-07-06T13:41:10;25.60;99.90
2729;DHT22;1372;47.956;7.830;2022-07-06T13:43:40;25.70;99.90
2729;DHT22;1372;47.956;7.830;2022-07-06T13:46:10;25.80;99.90
2729;DHT22;1372;47.956;7.830;2022-07-06T13:48:39;25.70;99.90
2729;DHT22;1372;47.956;7.830;2022-07-06T13:51:08;25.60;99.90
2729;DHT22;1372;47.956;7.830;2022-07-06T13:53:57;25.50;99.90
2729;DHT22;1372;47.956;7.830;2022-07-06T13:56:46;25.60;99.90
2729;DHT22;1372;47.956;7.830;2022-07-06T13:59:16;25.20;99.90
2729;DHT22;1372;47.956;7.830;2022-07-06T14:01:44;25.20;99.90
2729;DHT22;1372;47.956;7.830;2022-07-06T14:04:13;25.40;99.90
2729;DHT22;1372;47.956;7.830;2022-07-06T14:07:03;25.50;99.90
2729;DHT22;1372;47.956;7.830;2022-07-06T14:09:32;25.50;99.90
2729;DHT22;1372;47.956;7.830;2022-07-06T14:12:00;25.50;99.90
2729;DHT22;1372;47.956;7.830;2022-07-06T14:14:31;25.50;99.90
2729;DHT22;1372;47.956;7.830;2022-07-06T14:17:00;25.40;99.90
2729;DHT22;1372;47.956;7.830;2022-07-06T14:19:30;25.40;99.90
2729;DHT22;1372;47.956;7.830;2022-07-06T14:21:58;25.20;99.90
2729;DHT22;1372;47.956;7.830;2022-07-06T14:24:27;25.30;99.90
2729;DHT22;1372;47.956;7.830;2022-07-06T14:26:58;25.60;99.90
2729;DHT22;1372;47.956;7.830;2022-07-06T14:29:27;25.40;99.90
2729;DHT22;1372;47.956;7.830;2022-07-06T14:31:59;25.30;99.90
2729;DHT22;1372;47.956;7.830;2022-07-06T14:34:49;25.30;99.90
2729;DHT22;1372;47.956;7.830;2022-07-06T14:37:20;25.50;99.90
2729;DHT22;1372;47.956;7.830;2022-07-06T14:39:51;25.50;99.90
2729;DHT22;1372;47.956;7.830;2022-07-06T14:42:40;25.40;99.90
2729;DHT22;1372;47.956;7.830;2022-07-06T14:45:29;25.10;99.90
2729;DHT22;1372;47.956;7.830;2022-07-06T14:48:00;25.40;99.90
2729;DHT22;1372;47.956;7.830;2022-07-06T14:50:29;25.60;99.90
2729;DHT22;1372;47.956;7.830;2022-07-06T14:52:57;25.80;99.90
2729;DHT22;1372;47.956;7.830;2022-07-06T14:55:26;26.00;99.90
2729;DHT22;1372;47.956;7.830;2022-07-06T14:57:55;26.00;99.90
2729;DHT22;1372;47.956;7.830;2022-07-06T15:00:44;26.00;99.90
2729;DHT22;1372;47.956;7.830;2022-07-06T15:03:14;26.10;99.90
2729;DHT22;1372;47.956;7.830;2022-07-06T15:06:03;26.20;99.90
2729;DHT22;1372;47.956;7.830;2022-07-06T15:08:32;26.30;99.90
2729;DHT22;1372;47.956;7.830;2022-07-06T15:11:01;26.20;99.90
2729;DHT22;1372;47.956;7.830;2022-07-06T15:13:49;26.10;99.90
2729;DHT22;1372;47.956;7.830;2022-07-06T15:16:20;26.10;99.90
2729;DHT22;1372;47.956;7.830;2022-07-06T15:18:50;26.20;99.90
2729;DHT22;1372;47.956;7.830;2022-07-06T15:21:19;26.20;99.90
2729;DHT22;1372;47.956;7.830;2022-07-06T15:23:48;26.00;99.90
2729;DHT22;1372;47.956;7.830;2022-07-06T15:26:36;25.60;99.90
2729;DHT22;1372;47.956;7.830;2022-07-06T15:29:05;25.30;99.90
2729;DHT22;1372;47.956;7.830;2022-07-06T15:31:33;25.30;99.90
2729;DHT22;1372;47.956;7.830;2022-07-06T15:34:04;25.40;99.90
2729;DHT22;1372;47.956;7.830;2022-07-06T15:36:52;25.50;99.90
2729;DHT22;1372;47.956;7.830;2022-07-06T15:39:22;25.60;99.90
2729;DHT22;1372;47.956;7.830;2022-07-06T15:42:11;25.50;99.90
2729;DHT22;1372;47.956;7.830;2022-07-06T15:44:39;25.30;99.90
2729;DHT22;1372;47.956;7.830;2022-07-06T15:47:09;25.00;99.90
2729;DHT22;1372;47.956;7.830;2022-07-06T15:49:41;24.70;99.90
2729;DHT22;1372;47.956;7.830;2022-07-06T15:52:30;24.40;99.90
2729;DHT22;1372;47.956;7.830;2022-07-06T15:54:58;24.20;99.90
2729;DHT22;1372;47.956;7.830;2022-07-06T15:57:27;24.00;99.90
2729;DHT22;1372;47.956;7.830;2022-07-06T15:59:55;23.90;99.90
2729;DHT22;1372;47.956;7.830;2022-07-06T16:02:24;23.80;99.90
2729;DHT22;1372;47.956;7.830;2022-07-06T16:04:54;23.80;99.90
2729;DHT22;1372;47.956;7.830;2022-07-06T16:07:39;23.80;99.90
2729;DHT22;1372;47.956;7.830;2022-07-06T16:10:27;23.90;99.90
2729;DHT22;1372;47.956;7.830;2022-07-06T16:12:58;24.10;99.90
2729;DHT22;1372;47.956;7.830;2022-07-06T16:15:29;24.40;99.90
2729;DHT22;1372;47.956;7.830;2022-07-06T16:18:00;24.40;99.90
2729;DHT22;1372;47.956;7.830;2022-07-06T16:20:33;24.30;99.90
2729;DHT22;1372;47.956;7.830;2022-07-06T16:23:21;24.20;99.90
2729;DHT22;1372;47.956;7.830;2022-07-06T16:25:50;24.00;99.90
2729;DHT22;1372;47.956;7.830;2022-07-06T16:28:19;23.80;99.90
2729;DHT22;1372;47.956;7.830;2022-07-06T16:30:50;23.60;99.90
2729;DHT22;1372;47.956;7.830;2022-07-06T16:33:19;23.50;99.90
2729;DHT22;1372;47.956;7.830;2022-07-06T16:35:49;23.30;99.90
2729;DHT22;1372;47.956;7.830;2022-07-06T16:38:23;23.20;99.90
2729;DHT22;1372;47.956;7.830;2022-07-06T16:40:53;23.20;99.90
2729;DHT22;1372;47.956;7.830;2022-07-06T16:43:21;23.10;99.90